sensor_id;sensor_type;location;lat;lon;timestamp;P1;durP1;ratioP1;P2;durP2;ratioP2
12776;SDS011;6452;41.572;23.732;2023-05-10T00:01:13;2.25;;;2.15;;
12776;SDS011;6452;41.572;23.732;2023-05-10T00:03:39;2.45;;;2.35;;
12776;SDS011;6452;41.572;23.732;2023-05-10T00:06:05;2.08;;;2.00;;
12776;SDS011;6452;41.572;23.732;2023-05-10T00:08:32;1.80;;;1.80;;
12776;SDS011;6452;41.572;23.732;2023-05-10T00:10:58;1.92;;;1.83;;
12776;SDS011;6452;41.572;23.732;2023-05-10T00:13:24;2.08;;;1.98;;
12776;SDS011;6452;41.572;23.732;2023-05-10T00:15:50;1.77;;;1.67;;
12776;SDS011;6452;41.572;23.732;2023-05-10T00:18:17;1.67;;;1.60;;
12776;SDS011;6452;41.572;23.732;2023-05-10T00:20:43;2.03;;;1.92;;
12776;SDS011;6452;41.572;23.732;2023-05-10T00:23:11;2.22;;;2.00;;
12776;SDS011;6452;41.572;23.732;2023-05-10T00:25:37;1.83;;;1.73;;
12776;SDS011;6452;41.572;23.732;2023-05-10T00:28:03;2.22;;;2.13;;
12776;SDS011;6452;41.572;23.732;2023-05-10T00:30:30;2.95;;;1.73;;
12776;SDS011;6452;41.572;23.732;2023-05-10T00:32:56;2.33;;;2.22;;
12776;SDS011;6452;41.572;23.732;2023-05-10T00:35:22;1.65;;;1.63;;
12776;SDS011;6452;41.572;23.732;2023-05-10T00:37:49;2.03;;;1.92;;
12776;SDS011;6452;41.572;23.732;2023-05-10T00:40:15;1.92;;;1.80;;
12776;SDS011;6452;41.572;23.732;2023-05-10T00:42:41;2.00;;;1.90;;
12776;SDS011;6452;41.572;23.732;2023-05-10T00:45:07;2.92;;;2.33;;
12776;SDS011;6452;41.572;23.732;2023-05-10T00:47:33;1.83;;;1.73;;
12776;SDS011;6452;41.572;23.732;2023-05-10T00:49:59;2.30;;;2.20;;
12776;SDS011;6452;41.572;23.732;2023-05-10T00:52:26;2.15;;;2.05;;
12776;SDS011;6452;41.572;23.732;2023-05-10T00:54:52;1.63;;;1.63;;
12776;SDS011;6452;41.572;23.732;2023-05-10T00:57:19;1.90;;;1.80;;
12776;SDS011;6452;41.572;23.732;2023-05-10T00:59:45;2.55;;;1.90;;
12776;SDS011;6452;41.572;23.732;2023-05-10T01:02:11;1.80;;;1.67;;
12776;SDS011;6452;41.572;23.732;2023-05-10T01:04:37;1.70;;;1.60;;
12776;SDS011;6452;41.572;23.732;2023-05-10T01:07:03;1.80;;;1.60;;
12776;SDS011;6452;41.572;23.732;2023-05-10T01:09:29;2.03;;;1.92;;
12776;SDS011;6452;41.572;23.732;2023-05-10T01:11:55;1.92;;;1.90;;
12776;SDS011;6452;41.572;23.732;2023-05-10T01:14:22;1.83;;;1.63;;
12776;SDS011;6452;41.572;23.732;2023-05-10T01:16:48;1.80;;;1.77;;
12776;SDS011;6452;41.572;23.732;2023-05-10T01:19:26;1.77;;;1.70;;
12776;SDS011;6452;41.572;23.732;2023-05-10T01:35:27;2.08;;;1.98;;
12776;SDS011;6452;41.572;23.732;2023-05-10T01:40:25;1.65;;;1.55;;
12776;SDS011;6452;41.572;23.732;2023-05-10T01:42:58;1.90;;;1.80;;
12776;SDS011;6452;41.572;23.732;2023-05-10T01:45:30;2.88;;;1.63;;
12776;SDS011;6452;41.572;23.732;2023-05-10T01:47:58;1.80;;;1.70;;
12776;SDS011;6452;41.572;23.732;2023-05-10T01:50:29;1.55;;;1.45;;
12776;SDS011;6452;41.572;23.732;2023-05-10T01:52:57;1.40;;;1.40;;
12776;SDS011;6452;41.572;23.732;2023-05-10T01:55:25;1.80;;;1.70;;
12776;SDS011;6452;41.572;23.732;2023-05-10T01:57:55;1.58;;;1.58;;
12776;SDS011;6452;41.572;23.732;2023-05-10T02:00:22;1.50;;;1.50;;
12776;SDS011;6452;41.572;23.732;2023-05-10T02:02:48;2.08;;;1.98;;
12776;SDS011;6452;41.572;23.732;2023-05-10T02:05:14;1.67;;;1.60;;
12776;SDS011;6452;41.572;23.732;2023-05-10T02:07:41;2.15;;;2.05;;
12776;SDS011;6452;41.572;23.732;2023-05-10T02:10:08;1.92;;;1.77;;
12776;SDS011;6452;41.572;23.732;2023-05-10T02:12:35;2.05;;;1.95;;
12776;SDS011;6452;41.572;23.732;2023-05-10T02:15:02;1.52;;;1.52;;
12776;SDS011;6452;41.572;23.732;2023-05-10T02:17:29;2.00;;;1.90;;
12776;SDS011;6452;41.572;23.732;2023-05-10T02:19:56;2.22;;;2.13;;
12776;SDS011;6452;41.572;23.732;2023-05-10T02:22:23;2.50;;;2.40;;
12776;SDS011;6452;41.572;23.732;2023-05-10T02:24:49;1.80;;;1.75;;
12776;SDS011;6452;41.572;23.732;2023-05-10T02:27:16;2.05;;;1.95;;
12776;SDS011;6452;41.572;23.732;2023-05-10T02:29:42;1.83;;;1.73;;
12776;SDS011;6452;41.572;23.732;2023-05-10T02:32:08;2.25;;;2.05;;
12776;SDS011;6452;41.572;23.732;2023-05-10T02:34:35;2.22;;;2.10;;
12776;SDS011;6452;41.572;23.732;2023-05-10T02:37:03;1.92;;;1.83;;
12776;SDS011;6452;41.572;23.732;2023-05-10T02:39:30;2.20;;;2.10;;
12776;SDS011;6452;41.572;23.732;2023-05-10T02:41:57;2.25;;;2.15;;
12776;SDS011;6452;41.572;23.732;2023-05-10T02:44:24;2.22;;;2.13;;
12776;SDS011;6452;41.572;23.732;2023-05-10T02:46:51;2.00;;;1.90;;
12776;SDS011;6452;41.572;23.732;2023-05-10T02:49:18;2.20;;;2.10;;
12776;SDS011;6452;41.572;23.732;2023-05-10T02:51:46;1.85;;;1.80;;
12776;SDS011;6452;41.572;23.732;2023-05-10T02:54:15;2.08;;;1.98;;
12776;SDS011;6452;41.572;23.732;2023-05-10T02:56:47;1.90;;;1.80;;
12776;SDS011;6452;41.572;23.732;2023-05-10T02:59:13;1.45;;;1.45;;
12776;SDS011;6452;41.572;23.732;2023-05-10T03:01:39;2.25;;;2.15;;
12776;SDS011;6452;41.572;23.732;2023-05-10T03:04:05;1.65;;;1.65;;
12776;SDS011;6452;41.572;23.732;2023-05-10T03:06:31;1.58;;;1.58;;
12776;SDS011;6452;41.572;23.732;2023-05-10T03:08:57;1.98;;;1.85;;
12776;SDS011;6452;41.572;23.732;2023-05-10T03:16:29;2.03;;;1.92;;
12776;SDS011;6452;41.572;23.732;2023-05-10T03:19:04;1.80;;;1.70;;
12776;SDS011;6452;41.572;23.732;2023-05-10T03:21:32;2.25;;;2.15;;
12776;SDS011;6452;41.572;23.732;2023-05-10T03:23:59;2.30;;;2.10;;
12776;SDS011;6452;41.572;23.732;2023-05-10T03:26:26;2.00;;;1.90;;
12776;SDS011;6452;41.572;23.732;2023-05-10T03:28:52;2.08;;;1.98;;
12776;SDS011;6452;41.572;23.732;2023-05-10T03:31:19;2.00;;;1.90;;
12776;SDS011;6452;41.572;23.732;2023-05-10T03:33:45;2.00;;;1.90;;
12776;SDS011;6452;41.572;23.732;2023-05-10T03:36:11;2.55;;;2.42;;
12776;SDS011;6452;41.572;23.732;2023-05-10T03:38:37;2.35;;;2.25;;
12776;SDS011;6452;41.572;23.732;2023-05-10T03:41:03;1.95;;;1.85;;
12776;SDS011;6452;41.572;23.732;2023-05-10T03:43:30;2.30;;;2.13;;
12776;SDS011;6452;41.572;23.732;2023-05-10T03:45:56;2.20;;;2.00;;
12776;SDS011;6452;41.572;23.732;2023-05-10T03:48:22;2.30;;;2.20;;
12776;SDS011;6452;41.572;23.732;2023-05-10T03:50:48;2.33;;;2.22;;
12776;SDS011;6452;41.572;23.732;2023-05-10T03:53:17;2.65;;;2.00;;
12776;SDS011;6452;41.572;23.732;2023-05-10T03:55:43;2.40;;;2.30;;
12776;SDS011;6452;41.572;23.732;2023-05-10T03:58:10;2.58;;;2.38;;
12776;SDS011;6452;41.572;23.732;2023-05-10T04:00:36;2.17;;;2.05;;
12776;SDS011;6452;41.572;23.732;2023-05-10T04:03:02;2.10;;;2.00;;
12776;SDS011;6452;41.572;23.732;2023-05-10T04:05:28;1.90;;;1.80;;
12776;SDS011;6452;41.572;23.732;2023-05-10T04:07:55;3.28;;;2.50;;
12776;SDS011;6452;41.572;23.732;2023-05-10T04:10:21;1.73;;;1.63;;
12776;SDS011;6452;41.572;23.732;2023-05-10T04:12:47;2.10;;;2.00;;
12776;SDS011;6452;41.572;23.732;2023-05-10T04:15:13;1.95;;;1.85;;
12776;SDS011;6452;41.572;23.732;2023-05-10T04:17:39;1.77;;;1.67;;
12776;SDS011;6452;41.572;23.732;2023-05-10T04:20:06;1.65;;;1.55;;
12776;SDS011;6452;41.572;23.732;2023-05-10T04:22:33;3.58;;;2.22;;
12776;SDS011;6452;41.572;23.732;2023-05-10T04:24:59;1.98;;;1.88;;
12776;SDS011;6452;41.572;23.732;2023-05-10T04:27:26;1.83;;;1.77;;
12776;SDS011;6452;41.572;23.732;2023-05-10T04:29:52;1.83;;;1.83;;
12776;SDS011;6452;41.572;23.732;2023-05-10T04:32:18;1.42;;;1.42;;
12776;SDS011;6452;41.572;23.732;2023-05-10T04:34:45;1.63;;;1.63;;
12776;SDS011;6452;41.572;23.732;2023-05-10T04:37:11;2.00;;;1.90;;
12776;SDS011;6452;41.572;23.732;2023-05-10T04:39:38;1.35;;;1.35;;
12776;SDS011;6452;41.572;23.732;2023-05-10T04:42:04;1.75;;;1.65;;
12776;SDS011;6452;41.572;23.732;2023-05-10T04:44:31;1.83;;;1.83;;
12776;SDS011;6452;41.572;23.732;2023-05-10T04:46:58;2.10;;;2.00;;
12776;SDS011;6452;41.572;23.732;2023-05-10T04:49:24;2.50;;;2.30;;
12776;SDS011;6452;41.572;23.732;2023-05-10T04:51:50;2.20;;;2.10;;
12776;SDS011;6452;41.572;23.732;2023-05-10T04:54:16;2.65;;;2.40;;
12776;SDS011;6452;41.572;23.732;2023-05-10T04:56:42;2.63;;;2.10;;
12776;SDS011;6452;41.572;23.732;2023-05-10T04:59:08;1.60;;;1.60;;
12776;SDS011;6452;41.572;23.732;2023-05-10T05:01:34;1.80;;;1.70;;
12776;SDS011;6452;41.572;23.732;2023-05-10T05:04:01;1.95;;;1.85;;
12776;SDS011;6452;41.572;23.732;2023-05-10T05:06:27;1.52;;;1.52;;
12776;SDS011;6452;41.572;23.732;2023-05-10T05:08:53;1.85;;;1.75;;
12776;SDS011;6452;41.572;23.732;2023-05-10T05:11:19;1.80;;;1.70;;
12776;SDS011;6452;41.572;23.732;2023-05-10T05:13:46;1.80;;;1.70;;
12776;SDS011;6452;41.572;23.732;2023-05-10T05:16:12;1.60;;;1.50;;
12776;SDS011;6452;41.572;23.732;2023-05-10T05:18:38;1.20;;;1.20;;
12776;SDS011;6452;41.572;23.732;2023-05-10T05:21:16;1.52;;;1.52;;
12776;SDS011;6452;41.572;23.732;2023-05-10T05:23:42;1.30;;;1.30;;
12776;SDS011;6452;41.572;23.732;2023-05-10T05:26:09;1.23;;;1.23;;
12776;SDS011;6452;41.572;23.732;2023-05-10T05:28:35;2.78;;;1.60;;
12776;SDS011;6452;41.572;23.732;2023-05-10T05:31:06;1.83;;;1.73;;
12776;SDS011;6452;41.572;23.732;2023-05-10T05:33:33;2.33;;;2.13;;
12776;SDS011;6452;41.572;23.732;2023-05-10T05:36:00;1.65;;;1.58;;
12776;SDS011;6452;41.572;23.732;2023-05-10T05:38:26;1.50;;;1.50;;
12776;SDS011;6452;41.572;23.732;2023-05-10T05:40:52;1.45;;;1.45;;
12776;SDS011;6452;41.572;23.732;2023-05-10T05:43:18;1.70;;;1.60;;
12776;SDS011;6452;41.572;23.732;2023-05-10T05:45:44;1.63;;;1.52;;
12776;SDS011;6452;41.572;23.732;2023-05-10T05:48:11;2.33;;;1.98;;
12776;SDS011;6452;41.572;23.732;2023-05-10T05:50:37;1.85;;;1.75;;
12776;SDS011;6452;41.572;23.732;2023-05-10T05:53:03;1.77;;;1.67;;
12776;SDS011;6452;41.572;23.732;2023-05-10T05:55:29;1.90;;;1.80;;
12776;SDS011;6452;41.572;23.732;2023-05-10T05:57:57;1.77;;;1.67;;
12776;SDS011;6452;41.572;23.732;2023-05-10T06:00:23;1.80;;;1.70;;
12776;SDS011;6452;41.572;23.732;2023-05-10T06:02:50;1.52;;;1.52;;
12776;SDS011;6452;41.572;23.732;2023-05-10T06:05:15;1.70;;;1.60;;
12776;SDS011;6452;41.572;23.732;2023-05-10T06:07:45;1.42;;;1.42;;
12776;SDS011;6452;41.572;23.732;2023-05-10T06:10:11;1.65;;;1.65;;
12776;SDS011;6452;41.572;23.732;2023-05-10T06:12:37;1.80;;;1.70;;
12776;SDS011;6452;41.572;23.732;2023-05-10T06:15:04;1.50;;;1.50;;
12776;SDS011;6452;41.572;23.732;2023-05-10T06:17:30;1.52;;;1.52;;
12776;SDS011;6452;41.572;23.732;2023-05-10T06:19:57;2.00;;;1.90;;
12776;SDS011;6452;41.572;23.732;2023-05-10T06:22:23;1.50;;;1.50;;
12776;SDS011;6452;41.572;23.732;2023-05-10T06:24:49;1.75;;;1.70;;
12776;SDS011;6452;41.572;23.732;2023-05-10T06:27:15;1.75;;;1.65;;
12776;SDS011;6452;41.572;23.732;2023-05-10T06:29:41;1.63;;;1.63;;
12776;SDS011;6452;41.572;23.732;2023-05-10T06:32:07;1.77;;;1.67;;
12776;SDS011;6452;41.572;23.732;2023-05-10T06:34:33;1.98;;;1.88;;
12776;SDS011;6452;41.572;23.732;2023-05-10T06:37:00;1.98;;;1.88;;
12776;SDS011;6452;41.572;23.732;2023-05-10T06:39:26;3.60;;;2.17;;
12776;SDS011;6452;41.572;23.732;2023-05-10T06:41:52;2.50;;;2.30;;
12776;SDS011;6452;41.572;23.732;2023-05-10T06:44:19;1.98;;;1.90;;
12776;SDS011;6452;41.572;23.732;2023-05-10T06:46:46;2.22;;;2.10;;
12776;SDS011;6452;41.572;23.732;2023-05-10T06:49:12;3.60;;;2.13;;
12776;SDS011;6452;41.572;23.732;2023-05-10T06:51:38;2.50;;;2.40;;
12776;SDS011;6452;41.572;23.732;2023-05-10T06:54:05;2.80;;;2.60;;
12776;SDS011;6452;41.572;23.732;2023-05-10T06:56:32;2.90;;;2.70;;
12776;SDS011;6452;41.572;23.732;2023-05-10T06:58:58;2.30;;;2.20;;
12776;SDS011;6452;41.572;23.732;2023-05-10T07:01:24;2.30;;;2.20;;
12776;SDS011;6452;41.572;23.732;2023-05-10T07:03:50;1.75;;;1.73;;
12776;SDS011;6452;41.572;23.732;2023-05-10T07:06:16;1.58;;;1.58;;
12776;SDS011;6452;41.572;23.732;2023-05-10T07:08:42;1.55;;;1.55;;
12776;SDS011;6452;41.572;23.732;2023-05-10T07:11:08;2.00;;;1.90;;
12776;SDS011;6452;41.572;23.732;2023-05-10T07:13:35;1.50;;;1.50;;
12776;SDS011;6452;41.572;23.732;2023-05-10T07:16:02;1.73;;;1.70;;
12776;SDS011;6452;41.572;23.732;2023-05-10T07:18:28;2.00;;;1.90;;
12776;SDS011;6452;41.572;23.732;2023-05-10T07:20:54;1.45;;;1.45;;
12776;SDS011;6452;41.572;23.732;2023-05-10T07:23:20;1.30;;;1.30;;
12776;SDS011;6452;41.572;23.732;2023-05-10T07:25:47;1.20;;;1.20;;
12776;SDS011;6452;41.572;23.732;2023-05-10T07:28:14;1.20;;;1.20;;
12776;SDS011;6452;41.572;23.732;2023-05-10T07:30:40;1.58;;;1.58;;
12776;SDS011;6452;41.572;23.732;2023-05-10T07:33:06;1.23;;;1.13;;
12776;SDS011;6452;41.572;23.732;2023-05-10T07:35:33;1.50;;;1.45;;
12776;SDS011;6452;41.572;23.732;2023-05-10T07:38:00;1.27;;;1.27;;
12776;SDS011;6452;41.572;23.732;2023-05-10T07:40:25;1.95;;;1.52;;
12776;SDS011;6452;41.572;23.732;2023-05-10T07:42:51;1.15;;;1.15;;
12776;SDS011;6452;41.572;23.732;2023-05-10T07:45:18;1.73;;;1.50;;
12776;SDS011;6452;41.572;23.732;2023-05-10T07:47:44;0.90;;;0.90;;
12776;SDS011;6452;41.572;23.732;2023-05-10T07:50:10;1.55;;;0.88;;
12776;SDS011;6452;41.572;23.732;2023-05-10T07:52:36;1.00;;;1.00;;
12776;SDS011;6452;41.572;23.732;2023-05-10T07:55:02;0.90;;;0.90;;
12776;SDS011;6452;41.572;23.732;2023-05-10T07:57:28;1.05;;;0.90;;
12776;SDS011;6452;41.572;23.732;2023-05-10T07:59:54;0.93;;;0.93;;
12776;SDS011;6452;41.572;23.732;2023-05-10T08:02:20;1.00;;;1.00;;
12776;SDS011;6452;41.572;23.732;2023-05-10T08:04:46;1.08;;;1.08;;
12776;SDS011;6452;41.572;23.732;2023-05-10T08:07:12;1.00;;;1.00;;
12776;SDS011;6452;41.572;23.732;2023-05-10T08:09:38;0.80;;;0.80;;
12776;SDS011;6452;41.572;23.732;2023-05-10T08:12:04;1.10;;;1.10;;
12776;SDS011;6452;41.572;23.732;2023-05-10T08:14:31;1.35;;;1.25;;
12776;SDS011;6452;41.572;23.732;2023-05-10T08:16:57;1.08;;;1.08;;
12776;SDS011;6452;41.572;23.732;2023-05-10T08:19:23;1.10;;;1.10;;
12776;SDS011;6452;41.572;23.732;2023-05-10T08:21:49;1.27;;;1.27;;
12776;SDS011;6452;41.572;23.732;2023-05-10T08:24:19;1.10;;;1.10;;
12776;SDS011;6452;41.572;23.732;2023-05-10T08:26:45;1.20;;;1.20;;
12776;SDS011;6452;41.572;23.732;2023-05-10T08:29:15;1.10;;;1.10;;
12776;SDS011;6452;41.572;23.732;2023-05-10T08:31:42;1.13;;;1.13;;
12776;SDS011;6452;41.572;23.732;2023-05-10T08:34:08;1.33;;;1.33;;
12776;SDS011;6452;41.572;23.732;2023-05-10T08:36:34;1.23;;;1.15;;
12776;SDS011;6452;41.572;23.732;2023-05-10T08:39:01;2.20;;;1.65;;
12776;SDS011;6452;41.572;23.732;2023-05-10T08:41:27;1.80;;;1.35;;
12776;SDS011;6452;41.572;23.732;2023-05-10T08:43:54;1.27;;;1.27;;
12776;SDS011;6452;41.572;23.732;2023-05-10T08:46:20;1.50;;;1.40;;
12776;SDS011;6452;41.572;23.732;2023-05-10T08:48:47;1.80;;;1.80;;
12776;SDS011;6452;41.572;23.732;2023-05-10T08:51:14;1.50;;;1.50;;
12776;SDS011;6452;41.572;23.732;2023-05-10T08:53:40;1.23;;;1.23;;
12776;SDS011;6452;41.572;23.732;2023-05-10T08:56:06;1.30;;;1.30;;
12776;SDS011;6452;41.572;23.732;2023-05-10T08:58:33;1.05;;;1.05;;
12776;SDS011;6452;41.572;23.732;2023-05-10T09:00:59;1.00;;;1.00;;
12776;SDS011;6452;41.572;23.732;2023-05-10T09:03:26;0.80;;;0.80;;
12776;SDS011;6452;41.572;23.732;2023-05-10T09:05:51;0.90;;;0.90;;
12776;SDS011;6452;41.572;23.732;2023-05-10T09:08:17;1.00;;;1.00;;
12776;SDS011;6452;41.572;23.732;2023-05-10T09:10:44;0.80;;;0.80;;
12776;SDS011;6452;41.572;23.732;2023-05-10T09:13:10;0.47;;;0.47;;
12776;SDS011;6452;41.572;23.732;2023-05-10T09:15:37;2.47;;;0.80;;
12776;SDS011;6452;41.572;23.732;2023-05-10T09:18:07;0.98;;;0.98;;
12776;SDS011;6452;41.572;23.732;2023-05-10T09:20:33;1.20;;;1.20;;
12776;SDS011;6452;41.572;23.732;2023-05-10T09:23:00;1.00;;;1.00;;
12776;SDS011;6452;41.572;23.732;2023-05-10T09:25:26;1.58;;;1.48;;
12776;SDS011;6452;41.572;23.732;2023-05-10T09:27:52;1.35;;;1.35;;
12776;SDS011;6452;41.572;23.732;2023-05-10T09:30:28;1.13;;;1.13;;
12776;SDS011;6452;41.572;23.732;2023-05-10T09:33:10;1.20;;;1.20;;
12776;SDS011;6452;41.572;23.732;2023-05-10T09:35:36;1.50;;;1.40;;
12776;SDS011;6452;41.572;23.732;2023-05-10T09:38:03;1.30;;;1.23;;
12776;SDS011;6452;41.572;23.732;2023-05-10T09:40:30;1.10;;;1.10;;
12776;SDS011;6452;41.572;23.732;2023-05-10T09:43:00;0.90;;;0.90;;
12776;SDS011;6452;41.572;23.732;2023-05-10T09:45:27;2.00;;;1.90;;
12776;SDS011;6452;41.572;23.732;2023-05-10T09:47:54;1.73;;;1.63;;
12776;SDS011;6452;41.572;23.732;2023-05-10T09:50:20;3.72;;;1.98;;
12776;SDS011;6452;41.572;23.732;2023-05-10T09:52:47;1.50;;;1.40;;
12776;SDS011;6452;41.572;23.732;2023-05-10T09:55:17;1.60;;;1.50;;
12776;SDS011;6452;41.572;23.732;2023-05-10T09:57:45;1.65;;;1.55;;
12776;SDS011;6452;41.572;23.732;2023-05-10T10:00:18;1.40;;;1.40;;
12776;SDS011;6452;41.572;23.732;2023-05-10T10:02:45;1.15;;;1.10;;
12776;SDS011;6452;41.572;23.732;2023-05-10T10:05:11;1.02;;;1.02;;
12776;SDS011;6452;41.572;23.732;2023-05-10T10:07:37;0.98;;;0.98;;
12776;SDS011;6452;41.572;23.732;2023-05-10T10:10:03;1.25;;;1.25;;
12776;SDS011;6452;41.572;23.732;2023-05-10T10:12:30;2.35;;;2.15;;
12776;SDS011;6452;41.572;23.732;2023-05-10T10:14:56;1.63;;;1.52;;
12776;SDS011;6452;41.572;23.732;2023-05-10T10:17:23;1.33;;;1.33;;
12776;SDS011;6452;41.572;23.732;2023-05-10T10:19:50;1.33;;;1.25;;
12776;SDS011;6452;41.572;23.732;2023-05-10T10:22:16;1.08;;;1.08;;
12776;SDS011;6452;41.572;23.732;2023-05-10T10:24:42;0.90;;;0.90;;
12776;SDS011;6452;41.572;23.732;2023-05-10T10:27:19;1.10;;;1.10;;
12776;SDS011;6452;41.572;23.732;2023-05-10T10:30:04;1.13;;;1.13;;
12776;SDS011;6452;41.572;23.732;2023-05-10T10:32:44;0.90;;;0.90;;
12776;SDS011;6452;41.572;23.732;2023-05-10T10:35:13;1.17;;;1.17;;
12776;SDS011;6452;41.572;23.732;2023-05-10T10:37:41;1.15;;;1.10;;
12776;SDS011;6452;41.572;23.732;2023-05-10T10:42:52;0.90;;;0.90;;
12776;SDS011;6452;41.572;23.732;2023-05-10T10:45:19;0.90;;;0.90;;
12776;SDS011;6452;41.572;23.732;2023-05-10T10:47:45;1.70;;;1.60;;
12776;SDS011;6452;41.572;23.732;2023-05-10T10:50:11;0.98;;;0.98;;
12776;SDS011;6452;41.572;23.732;2023-05-10T10:52:42;1.55;;;0.80;;
12776;SDS011;6452;41.572;23.732;2023-05-10T10:55:08;0.77;;;0.77;;
12776;SDS011;6452;41.572;23.732;2023-05-10T11:02:48;0.65;;;0.65;;
12776;SDS011;6452;41.572;23.732;2023-05-10T11:07:56;0.90;;;0.90;;
12776;SDS011;6452;41.572;23.732;2023-05-10T11:10:23;0.80;;;0.80;;
12776;SDS011;6452;41.572;23.732;2023-05-10T11:13:01;0.95;;;0.82;;
12776;SDS011;6452;41.572;23.732;2023-05-10T11:18:00;0.90;;;0.90;;
12776;SDS011;6452;41.572;23.732;2023-05-10T11:20:41;0.82;;;0.82;;
12776;SDS011;6452;41.572;23.732;2023-05-10T11:23:11;0.75;;;0.75;;
12776;SDS011;6452;41.572;23.732;2023-05-10T11:25:42;0.80;;;0.80;;
12776;SDS011;6452;41.572;23.732;2023-05-10T11:28:11;0.80;;;0.80;;
12776;SDS011;6452;41.572;23.732;2023-05-10T11:30:38;1.17;;;0.70;;
12776;SDS011;6452;41.572;23.732;2023-05-10T11:33:08;0.70;;;0.70;;
12776;SDS011;6452;41.572;23.732;2023-05-10T11:35:38;0.80;;;0.80;;
12776;SDS011;6452;41.572;23.732;2023-05-10T11:38:23;0.90;;;0.90;;
12776;SDS011;6452;41.572;23.732;2023-05-10T11:40:50;1.42;;;1.08;;
12776;SDS011;6452;41.572;23.732;2023-05-10T11:43:18;0.60;;;0.60;;
12776;SDS011;6452;41.572;23.732;2023-05-10T11:45:44;0.73;;;0.73;;
12776;SDS011;6452;41.572;23.732;2023-05-10T11:48:11;0.70;;;0.70;;
12776;SDS011;6452;41.572;23.732;2023-05-10T11:50:37;0.70;;;0.70;;
12776;SDS011;6452;41.572;23.732;2023-05-10T11:53:03;0.55;;;0.55;;
12776;SDS011;6452;41.572;23.732;2023-05-10T11:55:29;0.70;;;0.70;;
12776;SDS011;6452;41.572;23.732;2023-05-10T11:58:00;0.60;;;0.60;;
12776;SDS011;6452;41.572;23.732;2023-05-10T12:00:26;0.60;;;0.60;;
12776;SDS011;6452;41.572;23.732;2023-05-10T12:02:51;1.52;;;0.77;;
12776;SDS011;6452;41.572;23.732;2023-05-10T12:05:17;0.68;;;0.68;;
12776;SDS011;6452;41.572;23.732;2023-05-10T12:07:44;0.70;;;0.70;;
12776;SDS011;6452;41.572;23.732;2023-05-10T12:10:10;0.70;;;0.70;;
12776;SDS011;6452;41.572;23.732;2023-05-10T12:12:40;1.25;;;0.80;;
12776;SDS011;6452;41.572;23.732;2023-05-10T12:15:16;0.68;;;0.68;;
12776;SDS011;6452;41.572;23.732;2023-05-10T12:17:44;0.68;;;0.68;;
12776;SDS011;6452;41.572;23.732;2023-05-10T12:20:16;0.68;;;0.68;;
12776;SDS011;6452;41.572;23.732;2023-05-10T12:22:51;0.85;;;0.70;;
12776;SDS011;6452;41.572;23.732;2023-05-10T12:25:18;0.70;;;0.70;;
12776;SDS011;6452;41.572;23.732;2023-05-10T12:27:56;0.60;;;0.60;;
12776;SDS011;6452;41.572;23.732;2023-05-10T12:30:23;0.70;;;0.70;;
12776;SDS011;6452;41.572;23.732;2023-05-10T12:32:50;0.85;;;0.85;;
12776;SDS011;6452;41.572;23.732;2023-05-10T12:35:16;0.77;;;0.77;;
12776;SDS011;6452;41.572;23.732;2023-05-10T12:37:43;1.17;;;0.80;;
12776;SDS011;6452;41.572;23.732;2023-05-10T12:40:09;0.70;;;0.70;;
12776;SDS011;6452;41.572;23.732;2023-05-10T12:42:36;0.90;;;0.90;;
12776;SDS011;6452;41.572;23.732;2023-05-10T12:45:03;0.88;;;0.88;;
12776;SDS011;6452;41.572;23.732;2023-05-10T12:47:29;0.80;;;0.80;;
12776;SDS011;6452;41.572;23.732;2023-05-10T12:49:56;0.60;;;0.60;;
12776;SDS011;6452;41.572;23.732;2023-05-10T12:52:21;0.70;;;0.70;;
12776;SDS011;6452;41.572;23.732;2023-05-10T12:54:48;1.05;;;1.05;;
12776;SDS011;6452;41.572;23.732;2023-05-10T12:57:14;0.90;;;0.90;;
12776;SDS011;6452;41.572;23.732;2023-05-10T12:59:40;0.82;;;0.82;;
12776;SDS011;6452;41.572;23.732;2023-05-10T13:02:06;0.85;;;0.85;;
12776;SDS011;6452;41.572;23.732;2023-05-10T13:04:32;0.80;;;0.80;;
12776;SDS011;6452;41.572;23.732;2023-05-10T13:06:58;0.80;;;0.80;;
12776;SDS011;6452;41.572;23.732;2023-05-10T13:09:25;0.75;;;0.75;;
12776;SDS011;6452;41.572;23.732;2023-05-10T13:11:52;0.60;;;0.60;;
12776;SDS011;6452;41.572;23.732;2023-05-10T13:14:37;0.80;;;0.80;;
12776;SDS011;6452;41.572;23.732;2023-05-10T13:17:05;0.60;;;0.60;;
12776;SDS011;6452;41.572;23.732;2023-05-10T13:19:32;0.75;;;0.75;;
12776;SDS011;6452;41.572;23.732;2023-05-10T13:21:58;0.75;;;0.75;;
12776;SDS011;6452;41.572;23.732;2023-05-10T13:24:24;0.70;;;0.70;;
12776;SDS011;6452;41.572;23.732;2023-05-10T13:26:50;0.73;;;0.73;;
12776;SDS011;6452;41.572;23.732;2023-05-10T13:29:17;0.80;;;0.80;;
12776;SDS011;6452;41.572;23.732;2023-05-10T13:31:43;0.88;;;0.88;;
12776;SDS011;6452;41.572;23.732;2023-05-10T13:34:09;0.95;;;0.88;;
12776;SDS011;6452;41.572;23.732;2023-05-10T13:36:35;0.85;;;0.85;;
12776;SDS011;6452;41.572;23.732;2023-05-10T13:39:02;0.90;;;0.90;;
12776;SDS011;6452;41.572;23.732;2023-05-10T13:41:30;1.23;;;1.20;;
12776;SDS011;6452;41.572;23.732;2023-05-10T13:43:57;0.75;;;0.75;;
12776;SDS011;6452;41.572;23.732;2023-05-10T13:46:23;0.70;;;0.70;;
12776;SDS011;6452;41.572;23.732;2023-05-10T13:48:49;0.60;;;0.60;;
12776;SDS011;6452;41.572;23.732;2023-05-10T13:51:15;0.95;;;0.95;;
12776;SDS011;6452;41.572;23.732;2023-05-10T13:53:42;0.70;;;0.70;;
12776;SDS011;6452;41.572;23.732;2023-05-10T13:59:08;0.77;;;0.77;;
12776;SDS011;6452;41.572;23.732;2023-05-10T14:01:34;0.77;;;0.77;;
12776;SDS011;6452;41.572;23.732;2023-05-10T14:04:00;1.52;;;1.42;;
12776;SDS011;6452;41.572;23.732;2023-05-10T14:06:31;7.78;;;4.80;;
12776;SDS011;6452;41.572;23.732;2023-05-10T14:08:57;1.60;;;1.50;;
12776;SDS011;6452;41.572;23.732;2023-05-10T14:11:23;1.08;;;1.08;;
12776;SDS011;6452;41.572;23.732;2023-05-10T14:13:50;0.90;;;0.90;;
12776;SDS011;6452;41.572;23.732;2023-05-10T14:16:15;1.83;;;1.00;;
12776;SDS011;6452;41.572;23.732;2023-05-10T14:18:42;1.45;;;0.80;;
12776;SDS011;6452;41.572;23.732;2023-05-10T14:21:08;0.85;;;0.85;;
12776;SDS011;6452;41.572;23.732;2023-05-10T14:23:34;0.90;;;0.90;;
12776;SDS011;6452;41.572;23.732;2023-05-10T14:26:00;1.00;;;1.00;;
12776;SDS011;6452;41.572;23.732;2023-05-10T14:28:26;0.85;;;0.85;;
12776;SDS011;6452;41.572;23.732;2023-05-10T14:30:53;0.88;;;0.88;;
12776;SDS011;6452;41.572;23.732;2023-05-10T14:33:19;0.93;;;0.93;;
12776;SDS011;6452;41.572;23.732;2023-05-10T14:35:46;0.98;;;0.98;;
12776;SDS011;6452;41.572;23.732;2023-05-10T14:38:12;1.05;;;1.05;;
12776;SDS011;6452;41.572;23.732;2023-05-10T14:40:38;0.85;;;0.85;;
12776;SDS011;6452;41.572;23.732;2023-05-10T14:43:08;1.35;;;1.30;;
12776;SDS011;6452;41.572;23.732;2023-05-10T14:45:35;1.00;;;1.00;;
12776;SDS011;6452;41.572;23.732;2023-05-10T14:48:01;1.10;;;1.10;;
12776;SDS011;6452;41.572;23.732;2023-05-10T14:50:30;1.50;;;0.95;;
12776;SDS011;6452;41.572;23.732;2023-05-10T14:56:02;1.05;;;1.05;;
12776;SDS011;6452;41.572;23.732;2023-05-10T14:58:29;1.00;;;1.00;;
12776;SDS011;6452;41.572;23.732;2023-05-10T15:00:56;1.20;;;1.20;;
12776;SDS011;6452;41.572;23.732;2023-05-10T15:03:22;1.02;;;1.02;;
12776;SDS011;6452;41.572;23.732;2023-05-10T15:05:48;0.90;;;0.90;;
12776;SDS011;6452;41.572;23.732;2023-05-10T15:08:14;1.60;;;1.60;;
12776;SDS011;6452;41.572;23.732;2023-05-10T15:10:41;1.85;;;1.17;;
12776;SDS011;6452;41.572;23.732;2023-05-10T15:13:07;1.02;;;1.02;;
12776;SDS011;6452;41.572;23.732;2023-05-10T15:15:33;1.10;;;1.10;;
12776;SDS011;6452;41.572;23.732;2023-05-10T15:17:59;3.63;;;1.67;;
12776;SDS011;6452;41.572;23.732;2023-05-10T15:20:25;1.23;;;1.23;;
12776;SDS011;6452;41.572;23.732;2023-05-10T15:22:52;2.47;;;1.27;;
12776;SDS011;6452;41.572;23.732;2023-05-10T15:25:19;1.20;;;1.20;;
12776;SDS011;6452;41.572;23.732;2023-05-10T15:27:45;0.85;;;0.85;;